sensor_id;sensor_type;location;lat;lon;timestamp;pressure;altitude;pressure_sealevel;temperature;humidity
64019;BME280;66942;52.138;5.216;2023-03-20T00:00:33;101967.0;;;13.83;58.55
64019;BME280;66942;52.138;5.216;2023-03-20T00:02:18;101967.0;;;14.0;58.06
64019;BME280;66942;52.138;5.216;2023-03-20T00:03:58;101960.0;;;13.91;58.38
64019;BME280;66942;52.138;5.216;2023-03-20T00:05:35;101964.0;;;13.82;58.47
64019;BME280;66942;52.138;5.216;2023-03-20T00:08:49;101965.0;;;14.04;57.87
64019;BME280;66942;52.138;5.216;2023-03-20T00:10:33;101968.0;;;14.04;57.94
64019;BME280;66942;52.138;5.216;2023-03-20T00:12:13;101968.0;;;13.95;57.96
64019;BME280;66942;52.138;5.216;2023-03-20T00:13:55;101966.0;;;13.96;57.94
64019;BME280;66942;52.138;5.216;2023-03-20T00:17:14;101963.0;;;13.93;58.11
64019;BME280;66942;52.138;5.216;2023-03-20T00:18:53;101961.0;;;14.16;56.9
64019;BME280;66942;52.138;5.216;2023-03-20T00:20:30;101961.0;;;14.02;57.32
64019;BME280;66942;52.138;5.216;2023-03-20T00:22:07;101952.0;;;13.83;57.57
64019;BME280;66942;52.138;5.216;2023-03-20T00:25:22;101952.0;;;13.93;56.84
64019;BME280;66942;52.138;5.216;2023-03-20T00:27:00;101956.0;;;13.89;56.78
64019;BME280;66942;52.138;5.216;2023-03-20T00:28:37;101949.0;;;13.89;56.61
64019;BME280;66942;52.138;5.216;2023-03-20T00:31:58;101946.0;;;13.83;56.57
64019;BME280;66942;52.138;5.216;2023-03-20T00:33:34;101949.0;;;13.87;56.76
64019;BME280;66942;52.138;5.216;2023-03-20T00:35:22;101947.0;;;13.87;56.42
64019;BME280;66942;52.138;5.216;2023-03-20T00:36:59;101948.0;;;13.75;57.08
64019;BME280;66942;52.138;5.216;2023-03-20T00:40:12;101955.0;;;13.83;56.46
64019;BME280;66942;52.138;5.216;2023-03-20T00:41:50;101957.0;;;13.81;56.21
64019;BME280;66942;52.138;5.216;2023-03-20T00:43:28;101960.0;;;13.89;55.61
64019;BME280;66942;52.138;5.216;2023-03-20T00:45:07;101967.0;;;13.98;54.7
64019;BME280;66942;52.138;5.216;2023-03-20T00:48:29;101968.0;;;13.98;54.96
64019;BME280;66942;52.138;5.216;2023-03-20T00:50:14;101974.0;;;13.91;55.2
64019;BME280;66942;52.138;5.216;2023-03-20T00:51:51;101984.0;;;13.72;55.36
64019;BME280;66942;52.138;5.216;2023-03-20T00:53:27;101989.0;;;13.8;54.72
64019;BME280;66942;52.138;5.216;2023-03-20T00:56:42;101990.0;;;13.94;54.56
64019;BME280;66942;52.138;5.216;2023-03-20T00:58:20;102001.0;;;13.96;54.04
64019;BME280;66942;52.138;5.216;2023-03-20T00:59:58;102005.0;;;14.02;53.93
64019;BME280;66942;52.138;5.216;2023-03-20T01:03:16;102003.0;;;13.92;54.3
64019;BME280;66942;52.138;5.216;2023-03-20T01:04:54;101998.0;;;13.95;54.2
64019;BME280;66942;52.138;5.216;2023-03-20T01:06:31;101990.0;;;13.99;54.39
64019;BME280;66942;52.138;5.216;2023-03-20T01:08:16;101983.0;;;13.95;54.85
64019;BME280;66942;52.138;5.216;2023-03-20T01:11:31;101973.0;;;13.77;54.98
64019;BME280;66942;52.138;5.216;2023-03-20T01:13:16;101977.0;;;13.71;54.68
64019;BME280;66942;52.138;5.216;2023-03-20T01:14:55;101980.0;;;13.96;54.32
64019;BME280;66942;52.138;5.216;2023-03-20T01:16:33;101984.0;;;13.82;55.08
64019;BME280;66942;52.138;5.216;2023-03-20T01:19:48;101994.0;;;13.84;54.73
64019;BME280;66942;52.138;5.216;2023-03-20T01:21:25;101991.0;;;13.83;54.85
64019;BME280;66942;52.138;5.216;2023-03-20T01:23:01;101987.0;;;13.76;55.11
64019;BME280;66942;52.138;5.216;2023-03-20T01:26:20;101986.0;;;13.81;54.7
64019;BME280;66942;52.138;5.216;2023-03-20T01:27:59;101990.0;;;13.93;54.42
64019;BME280;66942;52.138;5.216;2023-03-20T01:29:36;101989.0;;;13.71;54.43
64019;BME280;66942;52.138;5.216;2023-03-20T01:31:14;101985.0;;;13.95;54.2
64019;BME280;66942;52.138;5.216;2023-03-20T01:34:29;101985.0;;;13.84;54.04
64019;BME280;66942;52.138;5.216;2023-03-20T01:36:08;101992.0;;;13.8;54.4
64019;BME280;66942;52.138;5.216;2023-03-20T01:37:45;101993.0;;;13.85;54.46
64019;BME280;66942;52.138;5.216;2023-03-20T01:39:27;101993.0;;;13.95;54.24
64019;BME280;66942;52.138;5.216;2023-03-20T01:42:48;101987.0;;;13.88;54.15
64019;BME280;66942;52.138;5.216;2023-03-20T01:44:27;101982.0;;;13.75;54.43
64019;BME280;66942;52.138;5.216;2023-03-20T01:46:14;101975.0;;;13.63;54.61
64019;BME280;66942;52.138;5.216;2023-03-20T01:47:54;101968.0;;;13.77;54.34
64019;BME280;66942;52.138;5.216;2023-03-20T01:52:11;101976.0;;;13.49;55.03
64019;BME280;66942;52.138;5.216;2023-03-20T01:55:28;101982.0;;;13.35;55.37
64019;BME280;66942;52.138;5.216;2023-03-20T01:57:08;101988.0;;;13.61;54.63
64019;BME280;66942;52.138;5.216;2023-03-20T01:58:53;101995.0;;;13.62;54.97
64019;BME280;66942;52.138;5.216;2023-03-20T02:00:31;101987.0;;;13.49;55.24
64019;BME280;66942;52.138;5.216;2023-03-20T02:03:51;101982.0;;;13.43;55.1
64019;BME280;66942;52.138;5.216;2023-03-20T02:05:29;101983.0;;;13.44;55.09
64019;BME280;66942;52.138;5.216;2023-03-20T02:07:06;101989.0;;;13.24;55.85
64019;BME280;66942;52.138;5.216;2023-03-20T02:08:47;101994.0;;;13.4;55.52
64019;BME280;66942;52.138;5.216;2023-03-20T02:12:02;101994.0;;;13.3;56.0
64019;BME280;66942;52.138;5.216;2023-03-20T02:13:39;101986.0;;;13.3;56.28
64019;BME280;66942;52.138;5.216;2023-03-20T02:15:16;101982.0;;;13.34;55.89
64019;BME280;66942;52.138;5.216;2023-03-20T02:18:29;101982.0;;;13.44;55.83
64019;BME280;66942;52.138;5.216;2023-03-20T02:20:15;101973.0;;;13.25;56.48
64019;BME280;66942;52.138;5.216;2023-03-20T02:22:23;101962.0;;;13.46;55.69
64019;BME280;66942;52.138;5.216;2023-03-20T02:26:35;101958.0;;;13.44;55.07
64019;BME280;66942;52.138;5.216;2023-03-20T02:28:33;101961.0;;;13.18;55.66
64019;BME280;66942;52.138;5.216;2023-03-20T02:30:59;101960.0;;;13.3;55.8
64019;BME280;66942;52.138;5.216;2023-03-20T02:33:23;101963.0;;;13.34;55.53
64019;BME280;66942;52.138;5.216;2023-03-20T02:36:09;101960.0;;;13.25;54.96
64019;BME280;66942;52.138;5.216;2023-03-20T02:40:13;101957.0;;;13.32;55.03
64019;BME280;66942;52.138;5.216;2023-03-20T02:43:44;101956.0;;;13.44;54.59
64019;BME280;66942;52.138;5.216;2023-03-20T02:45:30;101958.0;;;13.14;55.17
64019;BME280;66942;52.138;5.216;2023-03-20T02:47:13;101956.0;;;13.28;55.22
64019;BME280;66942;52.138;5.216;2023-03-20T02:48:55;101946.0;;;13.06;55.1
64019;BME280;66942;52.138;5.216;2023-03-20T02:50:42;101937.0;;;13.2;55.17
64019;BME280;66942;52.138;5.216;2023-03-20T02:54:13;101930.0;;;13.22;55.23
64019;BME280;66942;52.138;5.216;2023-03-20T02:56:02;101922.0;;;13.23;55.2
64019;BME280;66942;52.138;5.216;2023-03-20T02:57:51;101917.0;;;13.33;54.91
64019;BME280;66942;52.138;5.216;2023-03-20T02:59:34;101909.0;;;13.25;55.2
64019;BME280;66942;52.138;5.216;2023-03-20T03:01:20;101896.0;;;13.22;55.06
64019;BME280;66942;52.138;5.216;2023-03-20T03:04:47;101881.0;;;12.9;55.87
64019;BME280;66942;52.138;5.216;2023-03-20T03:06:29;101878.0;;;13.16;55.69
64019;BME280;66942;52.138;5.216;2023-03-20T03:08:07;101893.0;;;13.08;55.41
64019;BME280;66942;52.138;5.216;2023-03-20T03:09:49;101908.0;;;13.12;55.44
64019;BME280;66942;52.138;5.216;2023-03-20T03:11:29;101911.0;;;13.07;55.58
64019;BME280;66942;52.138;5.216;2023-03-20T03:14:52;101903.0;;;13.01;55.3
64019;BME280;66942;52.138;5.216;2023-03-20T03:16:32;101909.0;;;13.11;55.44
64019;BME280;66942;52.138;5.216;2023-03-20T03:18:15;101912.0;;;13.04;55.56
64019;BME280;66942;52.138;5.216;2023-03-20T03:19:57;101913.0;;;13.14;55.42
64019;BME280;66942;52.138;5.216;2023-03-20T03:23:19;101912.0;;;12.88;55.77
64019;BME280;66942;52.138;5.216;2023-03-20T03:25:03;101912.0;;;12.82;56.32
64019;BME280;66942;52.138;5.216;2023-03-20T03:26:40;101915.0;;;12.82;56.11
64019;BME280;66942;52.138;5.216;2023-03-20T03:28:22;101912.0;;;12.89;55.98
64019;BME280;66942;52.138;5.216;2023-03-20T03:31:46;101907.0;;;12.83;56.27
64019;BME280;66942;52.138;5.216;2023-03-20T03:33:26;101909.0;;;12.83;55.94
64019;BME280;66942;52.138;5.216;2023-03-20T03:35:06;101905.0;;;12.73;56.25
64019;BME280;66942;52.138;5.216;2023-03-20T03:36:53;101902.0;;;12.74;55.84
64019;BME280;66942;52.138;5.216;2023-03-20T03:38:41;101899.0;;;12.51;56.42
64019;BME280;66942;52.138;5.216;2023-03-20T03:42:13;101901.0;;;12.84;55.74
64019;BME280;66942;52.138;5.216;2023-03-20T03:44:05;101899.0;;;12.61;56.19
64019;BME280;66942;52.138;5.216;2023-03-20T03:45:51;101898.0;;;12.75;56.23
64019;BME280;66942;52.138;5.216;2023-03-20T03:47:32;101894.0;;;12.74;56.14
64019;BME280;66942;52.138;5.216;2023-03-20T03:49:14;101886.0;;;12.71;56.31
64019;BME280;66942;52.138;5.216;2023-03-20T03:52:35;101880.0;;;12.72;56.21
64019;BME280;66942;52.138;5.216;2023-03-20T03:54:17;101881.0;;;12.51;56.41
64019;BME280;66942;52.138;5.216;2023-03-20T03:55:59;101878.0;;;12.67;56.22
64019;BME280;66942;52.138;5.216;2023-03-20T03:57:40;101869.0;;;12.82;55.85
64019;BME280;66942;52.138;5.216;2023-03-20T04:01:04;101870.0;;;12.6;56.27
64019;BME280;66942;52.138;5.216;2023-03-20T04:02:44;101870.0;;;12.57;56.91
64019;BME280;66942;52.138;5.216;2023-03-20T04:04:24;101874.0;;;12.73;55.96
64019;BME280;66942;52.138;5.216;2023-03-20T04:06:04;101873.0;;;12.65;56.11
64019;BME280;66942;52.138;5.216;2023-03-20T04:09:20;101873.0;;;12.63;56.31
64019;BME280;66942;52.138;5.216;2023-03-20T04:10:57;101871.0;;;12.74;55.96
64019;BME280;66942;52.138;5.216;2023-03-20T04:12:35;101866.0;;;12.71;55.82
64019;BME280;66942;52.138;5.216;2023-03-20T04:14:13;101859.0;;;12.68;56.25
64019;BME280;66942;52.138;5.216;2023-03-20T04:17:27;101863.0;;;12.73;55.84
64019;BME280;66942;52.138;5.216;2023-03-20T04:19:04;101860.0;;;12.68;56.3
64019;BME280;66942;52.138;5.216;2023-03-20T04:20:40;101868.0;;;12.65;56.26
64019;BME280;66942;52.138;5.216;2023-03-20T04:23:54;101861.0;;;12.65;56.07
64019;BME280;66942;52.138;5.216;2023-03-20T04:25:31;101861.0;;;12.55;56.47
64019;BME280;66942;52.138;5.216;2023-03-20T04:27:07;101862.0;;;12.66;55.93
64019;BME280;66942;52.138;5.216;2023-03-20T04:30:20;101865.0;;;12.66;55.99
64019;BME280;66942;52.138;5.216;2023-03-20T04:31:56;101871.0;;;12.56;56.19
64019;BME280;66942;52.138;5.216;2023-03-20T04:33:32;101875.0;;;12.48;56.31
64019;BME280;66942;52.138;5.216;2023-03-20T04:35:09;101872.0;;;12.5;56.57
64019;BME280;66942;52.138;5.216;2023-03-20T04:38:24;101873.0;;;12.64;56.28
64019;BME280;66942;52.138;5.216;2023-03-20T04:40:01;101867.0;;;12.48;56.45
64019;BME280;66942;52.138;5.216;2023-03-20T04:41:38;101869.0;;;12.53;56.56
64019;BME280;66942;52.138;5.216;2023-03-20T04:44:51;101864.0;;;12.6;56.19
64019;BME280;66942;52.138;5.216;2023-03-20T04:46:28;101862.0;;;12.7;55.84
64019;BME280;66942;52.138;5.216;2023-03-20T04:48:05;101860.0;;;12.59;56.08
64019;BME280;66942;52.138;5.216;2023-03-20T04:51:18;101863.0;;;12.56;56.3
64019;BME280;66942;52.138;5.216;2023-03-20T04:52:55;101865.0;;;12.69;55.94
64019;BME280;66942;52.138;5.216;2023-03-20T04:54:32;101863.0;;;12.46;56.91
64019;BME280;66942;52.138;5.216;2023-03-20T04:56:10;101857.0;;;12.7;56.0
64019;BME280;66942;52.138;5.216;2023-03-20T04:59:22;101855.0;;;12.63;56.45
64019;BME280;66942;52.138;5.216;2023-03-20T05:00:58;101852.0;;;12.5;56.77
64019;BME280;66942;52.138;5.216;2023-03-20T05:02:34;101857.0;;;12.53;56.94
64019;BME280;66942;52.138;5.216;2023-03-20T05:05:46;101855.0;;;12.56;56.54
64019;BME280;66942;52.138;5.216;2023-03-20T05:07:23;101860.0;;;12.4;56.74
64019;BME280;66942;52.138;5.216;2023-03-20T05:08:59;101855.0;;;12.65;56.32
64019;BME280;66942;52.138;5.216;2023-03-20T05:12:12;101851.0;;;12.74;56.03
64019;BME280;66942;52.138;5.216;2023-03-20T05:13:48;101847.0;;;12.6;56.21
64019;BME280;66942;52.138;5.216;2023-03-20T05:15:24;101848.0;;;12.58;56.33
64019;BME280;66942;52.138;5.216;2023-03-20T05:17:01;101846.0;;;12.5;56.39
64019;BME280;66942;52.138;5.216;2023-03-20T05:20:14;101849.0;;;12.62;56.32
64019;BME280;66942;52.138;5.216;2023-03-20T05:21:51;101848.0;;;12.61;56.75
64019;BME280;66942;52.138;5.216;2023-03-20T05:23:27;101851.0;;;12.41;57.17
64019;BME280;66942;52.138;5.216;2023-03-20T05:26:40;101849.0;;;12.52;56.6
64019;BME280;66942;52.138;5.216;2023-03-20T05:28:17;101847.0;;;12.46;57.57
64019;BME280;66942;52.138;5.216;2023-03-20T05:29:53;101846.0;;;12.5;56.87
64019;BME280;66942;52.138;5.216;2023-03-20T05:33:06;101851.0;;;12.74;56.39
64019;BME280;66942;52.138;5.216;2023-03-20T05:34:42;101849.0;;;12.69;56.58
64019;BME280;66942;52.138;5.216;2023-03-20T05:36:18;101847.0;;;12.61;56.69
64019;BME280;66942;52.138;5.216;2023-03-20T05:37:54;101851.0;;;12.51;57.0
64019;BME280;66942;52.138;5.216;2023-03-20T05:41:06;101855.0;;;12.58;56.71
64019;BME280;66942;52.138;5.216;2023-03-20T05:42:43;101857.0;;;12.53;56.96
64019;BME280;66942;52.138;5.216;2023-03-20T05:44:20;101866.0;;;12.36;57.31
64019;BME280;66942;52.138;5.216;2023-03-20T05:47:32;101872.0;;;12.24;57.94
64019;BME280;66942;52.138;5.216;2023-03-20T05:49:08;101872.0;;;12.4;57.33
64019;BME280;66942;52.138;5.216;2023-03-20T05:50:44;101877.0;;;12.51;57.09
64019;BME280;66942;52.138;5.216;2023-03-20T05:53:57;101876.0;;;12.52;56.99
64019;BME280;66942;52.138;5.216;2023-03-20T05:55:33;101874.0;;;12.72;56.54
64019;BME280;66942;52.138;5.216;2023-03-20T05:57:09;101874.0;;;12.54;57.07
64019;BME280;66942;52.138;5.216;2023-03-20T06:00:22;101872.0;;;12.4;56.95
64019;BME280;66942;52.138;5.216;2023-03-20T06:07:14;101867.0;;;12.63;56.74
64019;BME280;66942;52.138;5.216;2023-03-20T06:10:32;101862.0;;;12.57;56.55
64019;BME280;66942;52.138;5.216;2023-03-20T06:12:08;101867.0;;;12.48;56.99
64019;BME280;66942;52.138;5.216;2023-03-20T06:13:44;101868.0;;;12.66;56.59
64019;BME280;66942;52.138;5.216;2023-03-20T06:16:57;101866.0;;;12.57;57.14
64019;BME280;66942;52.138;5.216;2023-03-20T06:18:33;101871.0;;;12.37;57.47
64019;BME280;66942;52.138;5.216;2023-03-20T06:20:10;101868.0;;;12.59;57.03
64019;BME280;66942;52.138;5.216;2023-03-20T06:23:22;101874.0;;;12.59;56.88
64019;BME280;66942;52.138;5.216;2023-03-20T06:24:59;101877.0;;;12.65;56.68
64019;BME280;66942;52.138;5.216;2023-03-20T06:26:35;101880.0;;;12.62;56.75
64019;BME280;66942;52.138;5.216;2023-03-20T06:28:12;101880.0;;;12.55;56.86
64019;BME280;66942;52.138;5.216;2023-03-20T06:31:24;101886.0;;;12.62;56.83
64019;BME280;66942;52.138;5.216;2023-03-20T06:33:00;101882.0;;;12.43;57.37
64019;BME280;66942;52.138;5.216;2023-03-20T06:34:36;101887.0;;;12.5;57.26
64019;BME280;66942;52.138;5.216;2023-03-20T06:37:49;101887.0;;;12.53;57.16
64019;BME280;66942;52.138;5.216;2023-03-20T06:39:26;101889.0;;;12.59;57.0
64019;BME280;66942;52.138;5.216;2023-03-20T06:41:02;101888.0;;;12.72;56.85
64019;BME280;66942;52.138;5.216;2023-03-20T06:44:14;101892.0;;;12.59;57.21
64019;BME280;66942;52.138;5.216;2023-03-20T06:45:50;101893.0;;;12.52;57.84
64019;BME280;66942;52.138;5.216;2023-03-20T06:47:27;101893.0;;;12.51;57.14
64019;BME280;66942;52.138;5.216;2023-03-20T06:49:03;101896.0;;;12.57;57.46
64019;BME280;66942;52.138;5.216;2023-03-20T06:52:17;101896.0;;;12.53;57.55
64019;BME280;66942;52.138;5.216;2023-03-20T06:53:55;101898.0;;;12.53;57.43
64019;BME280;66942;52.138;5.216;2023-03-20T06:55:31;101897.0;;;12.49;57.51
64019;BME280;66942;52.138;5.216;2023-03-20T06:58:43;101902.0;;;12.62;57.2
64019;BME280;66942;52.138;5.216;2023-03-20T07:00:20;101896.0;;;12.52;57.45
64019;BME280;66942;52.138;5.216;2023-03-20T07:01:57;101899.0;;;12.64;57.25
64019;BME280;66942;52.138;5.216;2023-03-20T07:05:09;101899.0;;;12.38;57.98
64019;BME280;66942;52.138;5.216;2023-03-20T07:06:46;101898.0;;;12.57;57.35
64019;BME280;66942;52.138;5.216;2023-03-20T07:08:22;101899.0;;;12.58;57.44
64019;BME280;66942;52.138;5.216;2023-03-20T07:09:58;101902.0;;;12.73;56.83
64019;BME280;66942;52.138;5.216;2023-03-20T07:13:11;101903.0;;;12.84;56.87
64019;BME280;66942;52.138;5.216;2023-03-20T07:14:47;101905.0;;;12.76;56.83
64019;BME280;66942;52.138;5.216;2023-03-20T07:16:24;101899.0;;;12.79;56.82
64019;BME280;66942;52.138;5.216;2023-03-20T07:19:36;101906.0;;;12.71;57.11
64019;BME280;66942;52.138;5.216;2023-03-20T07:21:17;101907.0;;;12.54;57.65
64019;BME280;66942;52.138;5.216;2023-03-20T07:22:54;101909.0;;;12.78;57.06
64019;BME280;66942;52.138;5.216;2023-03-20T07:26:07;101907.0;;;12.4;58.22
64019;BME280;66942;52.138;5.216;2023-03-20T07:27:43;101910.0;;;12.55;57.7
64019;BME280;66942;52.138;5.216;2023-03-20T07:29:20;101909.0;;;12.55;57.56
64019;BME280;66942;52.138;5.216;2023-03-20T07:30:56;101905.0;;;12.74;57.15
64019;BME280;66942;52.138;5.216;2023-03-20T07:34:11;101905.0;;;12.54;57.24
64019;BME280;66942;52.138;5.216;2023-03-20T07:35:51;101912.0;;;12.72;57.0
64019;BME280;66942;52.138;5.216;2023-03-20T07:37:27;101911.0;;;12.57;57.4
64019;BME280;66942;52.138;5.216;2023-03-20T07:40:40;101910.0;;;12.76;56.97
64019;BME280;66942;52.138;5.216;2023-03-20T07:42:16;101914.0;;;12.8;57.04
64019;BME280;66942;52.138;5.216;2023-03-20T07:43:52;101907.0;;;12.93;56.72
64019;BME280;66942;52.138;5.216;2023-03-20T07:45:28;101910.0;;;12.96;56.23
64019;BME280;66942;52.138;5.216;2023-03-20T07:48:41;101908.0;;;12.98;56.15
64019;BME280;66942;52.138;5.216;2023-03-20T07:50:17;101905.0;;;12.81;56.33
64019;BME280;66942;52.138;5.216;2023-03-20T07:51:54;101908.0;;;12.81;56.3
64019;BME280;66942;52.138;5.216;2023-03-20T07:55:07;101903.0;;;12.9;56.22
64019;BME280;66942;52.138;5.216;2023-03-20T07:56:43;101903.0;;;13.17;55.68
64019;BME280;66942;52.138;5.216;2023-03-20T07:58:19;101910.0;;;13.03;55.87
64019;BME280;66942;52.138;5.216;2023-03-20T08:01:32;101909.0;;;13.02;55.95
64019;BME280;66942;52.138;5.216;2023-03-20T08:03:08;101905.0;;;13.04;56.02
64019;BME280;66942;52.138;5.216;2023-03-20T08:04:45;101907.0;;;13.22;55.28
64019;BME280;66942;52.138;5.216;2023-03-20T08:07:57;101909.0;;;13.2;55.32
64019;BME280;66942;52.138;5.216;2023-03-20T08:09:35;101907.0;;;13.15;55.15
64019;BME280;66942;52.138;5.216;2023-03-20T08:11:11;101911.0;;;13.3;55.24
64019;BME280;66942;52.138;5.216;2023-03-20T08:12:48;101910.0;;;13.31;55.01
64019;BME280;66942;52.138;5.216;2023-03-20T08:16:01;101910.0;;;13.31;54.8
64019;BME280;66942;52.138;5.216;2023-03-20T08:17:37;101909.0;;;13.33;54.54
64019;BME280;66942;52.138;5.216;2023-03-20T08:19:17;101913.0;;;13.47;54.4
64019;BME280;66942;52.138;5.216;2023-03-20T08:22:29;101911.0;;;13.22;55.43
64019;BME280;66942;52.138;5.216;2023-03-20T08:24:06;101908.0;;;13.59;54.14
64019;BME280;66942;52.138;5.216;2023-03-20T08:25:46;101905.0;;;13.42;53.91
64019;BME280;66942;52.138;5.216;2023-03-20T08:27:22;101907.0;;;13.6;53.87
64019;BME280;66942;52.138;5.216;2023-03-20T08:30:34;101907.0;;;13.69;53.86
64019;BME280;66942;52.138;5.216;2023-03-20T08:32:10;101911.0;;;13.8;53.32
64019;BME280;66942;52.138;5.216;2023-03-20T08:33:46;101909.0;;;13.74;53.54
64019;BME280;66942;52.138;5.216;2023-03-20T08:37:02;101905.0;;;13.58;53.57
64019;BME280;66942;52.138;5.216;2023-03-20T08:38:39;101915.0;;;13.71;53.25
64019;BME280;66942;52.138;5.216;2023-03-20T08:40:15;101911.0;;;13.56;53.48
64019;BME280;66942;52.138;5.216;2023-03-20T08:43:27;101908.0;;;13.76;53.68
64019;BME280;66942;52.138;5.216;2023-03-20T08:45:04;101909.0;;;13.85;53.36
64019;BME280;66942;52.138;5.216;2023-03-20T08:46:40;101916.0;;;13.53;53.72
64019;BME280;66942;52.138;5.216;2023-03-20T08:48:16;101911.0;;;13.67;54.13
64019;BME280;66942;52.138;5.216;2023-03-20T08:51:28;101913.0;;;13.66;54.3
64019;BME280;66942;52.138;5.216;2023-03-20T08:53:04;101913.0;;;13.68;54.64
64019;BME280;66942;52.138;5.216;2023-03-20T08:54:42;101913.0;;;13.83;54.74
64019;BME280;66942;52.138;5.216;2023-03-20T08:57:54;101913.0;;;13.88;55.13
64019;BME280;66942;52.138;5.216;2023-03-20T08:59:30;101917.0;;;13.95;54.91
64019;BME280;66942;52.138;5.216;2023-03-20T09:01:08;101912.0;;;13.74;55.66
64019;BME280;66942;52.138;5.216;2023-03-20T09:04:21;101914.0;;;13.8;55.26
64019;BME280;66942;52.138;5.216;2023-03-20T09:05:57;101916.0;;;13.76;55.64
64019;BME280;66942;52.138;5.216;2023-03-20T09:07:33;101918.0;;;13.97;55.56
64019;BME280;66942;52.138;5.216;2023-03-20T09:09:09;101918.0;;;13.63;56.29
64019;BME280;66942;52.138;5.216;2023-03-20T09:12:23;101918.0;;;13.72;56.09
64019;BME280;66942;52.138;5.216;2023-03-20T09:13:59;101923.0;;;13.84;56.68
64019;BME280;66942;52.138;5.216;2023-03-20T09:15:36;101923.0;;;13.63;56.21
64019;BME280;66942;52.138;5.216;2023-03-20T09:18:48;101919.0;;;13.85;56.33
64019;BME280;66942;52.138;5.216;2023-03-20T09:20:24;101924.0;;;13.82;56.49
64019;BME280;66942;52.138;5.216;2023-03-20T09:22:00;101926.0;;;13.61;56.85
64019;BME280;66942;52.138;5.216;2023-03-20T09:25:13;101923.0;;;13.55;57.53
64019;BME280;66942;52.138;5.216;2023-03-20T09:26:50;101921.0;;;13.6;57.4
64019;BME280;66942;52.138;5.216;2023-03-20T09:28:26;101923.0;;;13.58;58.0
64019;BME280;66942;52.138;5.216;2023-03-20T09:31:39;101921.0;;;13.49;58.08
64019;BME280;66942;52.138;5.216;2023-03-20T09:33:16;101921.0;;;13.61;57.98
64019;BME280;66942;52.138;5.216;2023-03-20T09:34:52;101915.0;;;13.82;58.07
64019;BME280;66942;52.138;5.216;2023-03-20T09:36:28;101911.0;;;13.69;57.99
64019;BME280;66942;52.138;5.216;2023-03-20T09:39:41;101914.0;;;13.55;58.16
64019;BME280;66942;52.138;5.216;2023-03-20T09:41:20;101918.0;;;13.75;58.86
64019;BME280;66942;52.138;5.216;2023-03-20T09:43:03;101911.0;;;13.83;57.91
64019;BME280;66942;52.138;5.216;2023-03-20T09:44:51;101913.0;;;13.7;58.08
64019;BME280;66942;52.138;5.216;2023-03-20T09:48:30;101918.0;;;13.31;58.98
64019;BME280;66942;52.138;5.216;2023-03-20T09:50:17;101916.0;;;13.77;57.98
64019;BME280;66942;52.138;5.216;2023-03-20T09:53:55;101908.0;;;13.72;57.72
64019;BME280;66942;52.138;5.216;2023-03-20T09:55:37;101909.0;;;13.8;57.79
64019;BME280;66942;52.138;5.216;2023-03-20T09:58:58;101909.0;;;13.76;58.49
64019;BME280;66942;52.138;5.216;2023-03-20T10:00:42;101905.0;;;13.96;57.6
64019;BME280;66942;52.138;5.216;2023-03-20T10:02:23;101910.0;;;14.03;57.57
64019;BME280;66942;52.138;5.216;2023-03-20T10:04:11;101909.0;;;14.01;57.3
64019;BME280;66942;52.138;5.216;2023-03-20T10:05:52;101910.0;;;13.65;56.87
64019;BME280;66942;52.138;5.216;2023-03-20T10:09:13;101907.0;;;13.72;56.55
64019;BME280;66942;52.138;5.216;2023-03-20T10:10:56;101908.0;;;13.97;57.54
64019;BME280;66942;52.138;5.216;2023-03-20T10:12:47;101909.0;;;14.08;56.92
64019;BME280;66942;52.138;5.216;2023-03-20T10:14:34;101912.0;;;13.5;58.18
64019;BME280;66942;52.138;5.216;2023-03-20T10:16:28;101909.0;;;13.95;57.24
64019;BME280;66942;52.138;5.216;2023-03-20T10:18:17;101906.0;;;14.16;57.03
64019;BME280;66942;52.138;5.216;2023-03-20T10:21:47;101902.0;;;14.25;56.58
64019;BME280;66942;52.138;5.216;2023-03-20T10:23:28;101898.0;;;14.12;56.6
64019;BME280;66942;52.138;5.216;2023-03-20T10:25:20;101898.0;;;14.18;56.75
64019;BME280;66942;52.138;5.216;2023-03-20T10:27:02;101897.0;;;14.47;56.59
64019;BME280;66942;52.138;5.216;2023-03-20T10:28:49;101894.0;;;14.1;57.35
64019;BME280;66942;52.138;5.216;2023-03-20T10:32:28;101895.0;;;14.38;56.95
64019;BME280;66942;52.138;5.216;2023-03-20T10:34:21;101898.0;;;14.15;57.56
64019;BME280;66942;52.138;5.216;2023-03-20T10:36:27;101895.0;;;13.91;57.78
64019;BME280;66942;52.138;5.216;2023-03-20T10:38:19;101893.0;;;13.86;56.89
64019;BME280;66942;52.138;5.216;2023-03-20T10:40:13;101894.0;;;13.89;57.43
64019;BME280;66942;52.138;5.216;2023-03-20T10:42:00;101892.0;;;14.0;56.71
64019;BME280;66942;52.138;5.216;2023-03-20T10:43:41;101891.0;;;14.41;56.43
64019;BME280;66942;52.138;5.216;2023-03-20T10:47:11;101888.0;;;14.38;57.68
64019;BME280;66942;52.138;5.216;2023-03-20T10:48:57;101890.0;;;14.59;56.37
64019;BME280;66942;52.138;5.216;2023-03-20T10:50:40;101890.0;;;14.56;56.94
64019;BME280;66942;52.138;5.216;2023-03-20T10:52:21;101891.0;;;14.45;57.53
64019;BME280;66942;52.138;5.216;2023-03-20T10:54:02;101886.0;;;14.31;57.22
64019;BME280;66942;52.138;5.216;2023-03-20T10:57:22;101886.0;;;14.02;57.08
64019;BME280;66942;52.138;5.216;2023-03-20T10:59:03;101886.0;;;14.13;57.17
64019;BME280;66942;52.138;5.216;2023-03-20T11:00:42;101891.0;;;14.09;57.76
64019;BME280;66942;52.138;5.216;2023-03-20T11:02:20;101880.0;;;14.32;57.34
64019;BME280;66942;52.138;5.216;2023-03-20T11:05:36;101885.0;;;13.87;58.35
64019;BME280;66942;52.138;5.216;2023-03-20T11:07:20;101885.0;;;14.06;57.67
64019;BME280;66942;52.138;5.216;2023-03-20T11:09:10;101884.0;;;14.03;57.37
64019;BME280;66942;52.138;5.216;2023-03-20T11:10:56;101883.0;;;14.13;57.79
64019;BME280;66942;52.138;5.216;2023-03-20T11:12:35;101883.0;;;14.16;58.09
64019;BME280;66942;52.138;5.216;2023-03-20T11:15:54;101882.0;;;14.29;57.59
64019;BME280;66942;52.138;5.216;2023-03-20T11:17:32;101880.0;;;14.01;58.23
64019;BME280;66942;52.138;5.216;2023-03-20T11:19:10;101875.0;;;14.13;57.92
64019;BME280;66942;52.138;5.216;2023-03-20T11:22:27;101872.0;;;14.04;58.37